PAS102 WIII-WARR
Flight info
| Callsign | PAS102 |
|---|---|
| Flight time | N/A |
| Altitude | 35000 |
| Route | CA2A CA T3 BA BA1C |
| Aircraft | A320/M-SDE3FGHIRWY/LB1 |
Departure
| Time | 2026-05-06 06:36 |
|---|---|
| Airport | Soekarno-Hatta International Airport (WIII) |
Arrival
| Time | N/A |
|---|---|
| Airport | Juanda International Airport (WARR) |
| Time | Latitude | Longitude | Altitude | Speed | Heading |
|---|---|---|---|---|---|
| 2026-05-06 05:39 | -6.11622 | 106.66829 | 31 ft | 0 kts | 158° |
| 2026-05-06 06:24 | -6.11614 | 106.66825 | 31 ft | 3 kts | 158° |
| 2026-05-06 06:24 | -6.11595 | 106.66818 | 31 ft | 3 kts | 158° |
| 2026-05-06 06:25 | -6.11577 | 106.66810 | 31 ft | 3 kts | 161° |
| 2026-05-06 06:25 | -6.11557 | 106.66805 | 31 ft | 3 kts | 171° |
| 2026-05-06 06:25 | -6.11518 | 106.66807 | 30 ft | 3 kts | 211° |
| 2026-05-06 06:26 | -6.11506 | 106.66817 | 30 ft | 1 kts | 248° |
| 2026-05-06 06:26 | -6.11501 | 106.66830 | 30 ft | 3 kts | 248° |
| 2026-05-06 06:26 | -6.11498 | 106.66838 | 30 ft | 0 kts | 248° |
| 2026-05-06 06:28 | -6.11519 | 106.66783 | 31 ft | 17 kts | 248° |
| 2026-05-06 06:28 | -6.11567 | 106.66660 | 31 ft | 21 kts | 249° |
| 2026-05-06 06:28 | -6.11621 | 106.66519 | 31 ft | 23 kts | 249° |
| 2026-05-06 06:29 | -6.11597 | 106.66392 | 32 ft | 20 kts | 330° |
| 2026-05-06 06:29 | -6.11561 | 106.66374 | 31 ft | 3 kts | 334° |
| 2026-05-06 06:29 | -6.11531 | 106.66361 | 31 ft | 6 kts | 337° |
| 2026-05-06 06:29 | -6.11484 | 106.66341 | 31 ft | 9 kts | 337° |
| 2026-05-06 06:30 | -6.11422 | 106.66315 | 31 ft | 11 kts | 338° |
| 2026-05-06 06:30 | -6.11356 | 106.66272 | 31 ft | 12 kts | 294° |
| 2026-05-06 06:30 | -6.11367 | 106.66184 | 32 ft | 14 kts | 250° |
| 2026-05-06 06:30 | -6.11409 | 106.66088 | 32 ft | 16 kts | 248° |
| 2026-05-06 06:31 | -6.11454 | 106.65975 | 32 ft | 19 kts | 249° |
| 2026-05-06 06:31 | -6.11504 | 106.65846 | 32 ft | 21 kts | 249° |
| 2026-05-06 06:31 | -6.11560 | 106.65707 | 31 ft | 22 kts | 248° |
| 2026-05-06 06:31 | -6.11620 | 106.65557 | 32 ft | 24 kts | 249° |
| 2026-05-06 06:32 | -6.11683 | 106.65397 | 34 ft | 25 kts | 248° |
| 2026-05-06 06:32 | -6.11750 | 106.65229 | 34 ft | 26 kts | 248° |
| 2026-05-06 06:32 | -6.11820 | 106.65054 | 34 ft | 28 kts | 248° |
| 2026-05-06 06:32 | -6.11892 | 106.64872 | 36 ft | 29 kts | 248° |
| 2026-05-06 06:33 | -6.11966 | 106.64683 | 36 ft | 30 kts | 249° |
| 2026-05-06 06:33 | -6.12044 | 106.64489 | 36 ft | 31 kts | 247° |
| 2026-05-06 06:33 | -6.12125 | 106.64289 | 37 ft | 31 kts | 248° |
| 2026-05-06 06:33 | -6.12208 | 106.64084 | 37 ft | 32 kts | 248° |
| 2026-05-06 06:34 | -6.12244 | 106.63911 | 36 ft | 22 kts | 295° |
| 2026-05-06 06:34 | -6.12211 | 106.63883 | 39 ft | 0 kts | 342° |
| 2026-05-06 06:34 | -6.12209 | 106.63883 | 39 ft | 2 kts | 342° |
| 2026-05-06 06:34 | -6.12157 | 106.63883 | 39 ft | 13 kts | 12° |
| 2026-05-06 06:35 | -6.12070 | 106.63940 | 37 ft | 14 kts | 63° |
| 2026-05-06 06:35 | -6.12062 | 106.63958 | 37 ft | 0 kts | 66° |
| 2026-05-06 06:35 | -6.11994 | 106.64125 | 36 ft | 65 kts | 68° |
| 2026-05-06 06:36 | -6.11727 | 106.64799 | 35 ft | 138 kts | 68° |
| 2026-05-06 06:36 | -6.11355 | 106.65816 | 452 ft | 161 kts | 69° |
| 2026-05-06 06:36 | -6.10912 | 106.66822 | 1153 ft | 160 kts | 54° |
| 2026-05-06 06:36 | -6.10005 | 106.67640 | 1596 ft | 192 kts | 33° |
| 2026-05-06 06:37 | -6.09206 | 106.68127 | 1961 ft | 208 kts | 31° |
| 2026-05-06 06:37 | -6.07521 | 106.69012 | 3486 ft | 202 kts | 34° |
| 2026-05-06 06:37 | -6.06634 | 106.69483 | 3632 ft | 238 kts | 32° |
| 2026-05-06 06:37 | -6.05353 | 106.70726 | 3758 ft | 277 kts | 59° |
| 2026-05-06 06:38 | -6.04402 | 106.72533 | 4066 ft | 304 kts | 64° |
| 2026-05-06 06:38 | -6.03013 | 106.74958 | 5689 ft | 290 kts | 57° |
| 2026-05-06 06:38 | -6.02257 | 106.76037 | 6610 ft | 281 kts | 54° |
| 2026-05-06 06:38 | -6.00656 | 106.78040 | 8028 ft | 279 kts | 51° |
| 2026-05-06 06:39 | -5.99789 | 106.79039 | 8605 ft | 282 kts | 50° |
| 2026-05-06 06:39 | -5.98302 | 106.81175 | 9748 ft | 285 kts | 71° |
| 2026-05-06 06:39 | -5.97999 | 106.83146 | 10409 ft | 294 kts | 94° |
| 2026-05-06 06:39 | -5.98256 | 106.84546 | 10610 ft | 310 kts | 106° |
| 2026-05-06 06:40 | -5.98972 | 106.86715 | 10459 ft | 349 kts | 109° |
| 2026-05-06 06:40 | -5.99837 | 106.89089 | 10700 ft | 368 kts | 110° |
| 2026-05-06 06:40 | -6.00707 | 106.91483 | 11795 ft | 358 kts | 109° |
| 2026-05-06 06:40 | -6.01527 | 106.93788 | 13216 ft | 343 kts | 109° |
| 2026-05-06 06:41 | -6.02289 | 106.95969 | 14461 ft | 331 kts | 109° |
| 2026-05-06 06:41 | -6.03047 | 106.98164 | 15236 ft | 335 kts | 108° |
| 2026-05-06 06:41 | -6.03811 | 107.00390 | 15930 ft | 339 kts | 108° |
| 2026-05-06 06:41 | -6.04584 | 107.02645 | 16613 ft | 344 kts | 108° |
| 2026-05-06 06:42 | -6.05367 | 107.04931 | 17307 ft | 349 kts | 108° |
| 2026-05-06 06:42 | -6.06162 | 107.07253 | 17984 ft | 353 kts | 108° |
| 2026-05-06 06:42 | -6.06966 | 107.09600 | 18591 ft | 357 kts | 108° |
| 2026-05-06 06:42 | -6.07777 | 107.11972 | 19187 ft | 360 kts | 108° |
| 2026-05-06 06:43 | -6.08596 | 107.14364 | 19790 ft | 364 kts | 108° |
| 2026-05-06 06:43 | -6.09433 | 107.16813 | 20047 ft | 379 kts | 108° |
| 2026-05-06 06:43 | -6.10419 | 107.19337 | 20235 ft | 395 kts | 113° |
| 2026-05-06 06:43 | -6.11540 | 107.21881 | 20733 ft | 400 kts | 112° |
| 2026-05-06 06:44 | -6.12666 | 107.24453 | 21331 ft | 403 kts | 112° |
| 2026-05-06 06:44 | -6.13796 | 107.27043 | 21855 ft | 407 kts | 112° |
| 2026-05-06 06:44 | -6.14936 | 107.29657 | 22378 ft | 410 kts | 112° |
| 2026-05-06 06:44 | -6.16086 | 107.32295 | 22878 ft | 414 kts | 112° |
| 2026-05-06 06:45 | -6.17245 | 107.34954 | 23360 ft | 417 kts | 112° |
| 2026-05-06 06:45 | -6.18408 | 107.37620 | 23748 ft | 420 kts | 113° |
| 2026-05-06 06:45 | -6.19583 | 107.40315 | 24146 ft | 422 kts | 113° |
| 2026-05-06 06:45 | -6.20767 | 107.43030 | 24554 ft | 425 kts | 113° |
| 2026-05-06 06:46 | -6.21954 | 107.45755 | 24943 ft | 427 kts | 113° |
| 2026-05-06 06:46 | -6.23149 | 107.48498 | 25282 ft | 430 kts | 113° |
| 2026-05-06 06:46 | -6.24352 | 107.51257 | 25603 ft | 432 kts | 113° |
| 2026-05-06 06:46 | -6.25558 | 107.54026 | 25910 ft | 434 kts | 113° |
| 2026-05-06 06:47 | -6.26774 | 107.56818 | 26230 ft | 436 kts | 113° |
| 2026-05-06 06:47 | -6.27977 | 107.59581 | 26516 ft | 438 kts | 113° |
| 2026-05-06 06:47 | -6.29201 | 107.62392 | 26829 ft | 440 kts | 113° |
| 2026-05-06 06:47 | -6.30431 | 107.65219 | 27092 ft | 443 kts | 113° |
| 2026-05-06 06:48 | -6.31668 | 107.68062 | 27401 ft | 444 kts | 112° |
| 2026-05-06 06:48 | -6.32909 | 107.70914 | 27655 ft | 447 kts | 113° |
| 2026-05-06 06:48 | -6.34157 | 107.73784 | 27931 ft | 449 kts | 113° |
| 2026-05-06 06:48 | -6.35411 | 107.76667 | 28213 ft | 451 kts | 113° |
| 2026-05-06 06:49 | -6.36672 | 107.79564 | 28469 ft | 453 kts | 113° |
| 2026-05-06 06:49 | -6.37938 | 107.82476 | 28729 ft | 455 kts | 113° |
| 2026-05-06 06:49 | -6.39209 | 107.85400 | 28985 ft | 458 kts | 113° |
| 2026-05-06 06:49 | -6.40485 | 107.88336 | 29230 ft | 460 kts | 113° |
| 2026-05-06 06:50 | -6.41768 | 107.91289 | 29470 ft | 462 kts | 113° |
| 2026-05-06 06:50 | -6.43056 | 107.94252 | 29730 ft | 463 kts | 113° |
| 2026-05-06 06:50 | -6.44348 | 107.97226 | 29955 ft | 466 kts | 113° |
| 2026-05-06 06:50 | -6.45647 | 108.00216 | 30175 ft | 467 kts | 113° |
| 2026-05-06 06:51 | -6.46949 | 108.03216 | 30399 ft | 469 kts | 113° |
| 2026-05-06 06:51 | -6.48256 | 108.06228 | 30645 ft | 470 kts | 113° |
| 2026-05-06 06:51 | -6.49563 | 108.09243 | 30886 ft | 472 kts | 113° |
| 2026-05-06 06:51 | -6.50875 | 108.12269 | 31178 ft | 472 kts | 113° |
| 2026-05-06 06:52 | -6.52185 | 108.15289 | 31497 ft | 471 kts | 113° |
| 2026-05-06 06:52 | -6.53493 | 108.18307 | 31800 ft | 470 kts | 113° |
| 2026-05-06 06:52 | -6.54798 | 108.21320 | 32109 ft | 470 kts | 113° |
| 2026-05-06 06:52 | -6.56102 | 108.24328 | 32409 ft | 469 kts | 113° |
| 2026-05-06 06:53 | -6.57403 | 108.27333 | 32718 ft | 468 kts | 113° |
| 2026-05-06 06:53 | -6.58701 | 108.30330 | 33015 ft | 467 kts | 113° |
| 2026-05-06 06:53 | -6.59980 | 108.33281 | 33301 ft | 466 kts | 113° |
| 2026-05-06 06:53 | -6.61275 | 108.36271 | 33582 ft | 466 kts | 113° |
| 2026-05-06 06:54 | -6.62583 | 108.39293 | 33851 ft | 465 kts | 113° |
| 2026-05-06 06:54 | -6.63856 | 108.42233 | 34088 ft | 464 kts | 113° |
| 2026-05-06 06:54 | -6.65142 | 108.45205 | 34322 ft | 464 kts | 113° |
| 2026-05-06 06:54 | -6.66429 | 108.48179 | 34525 ft | 463 kts | 113° |
| 2026-05-06 06:55 | -6.67713 | 108.51147 | 34722 ft | 464 kts | 113° |
| 2026-05-06 06:55 | -6.69872 | 108.57299 | 34817 ft | 471 kts | 103° |
| 2026-05-06 06:56 | -6.71005 | 108.63842 | 34816 ft | 479 kts | 98° |
| 2026-05-06 06:56 | -6.72026 | 108.70499 | 34811 ft | 484 kts | 98° |
| 2026-05-06 06:57 | -6.73062 | 108.77217 | 34812 ft | 488 kts | 98° |
| 2026-05-06 06:57 | -6.74101 | 108.83976 | 34814 ft | 490 kts | 98° |
| 2026-05-06 06:58 | -6.75140 | 108.90752 | 34813 ft | 491 kts | 98° |
| 2026-05-06 06:58 | -6.76180 | 108.97550 | 34809 ft | 492 kts | 98° |
| 2026-05-06 06:59 | -6.77221 | 109.04353 | 34811 ft | 492 kts | 98° |
| 2026-05-06 06:59 | -6.78262 | 109.11162 | 34806 ft | 493 kts | 98° |
| 2026-05-06 07:00 | -6.79303 | 109.17980 | 34806 ft | 493 kts | 98° |
| 2026-05-06 07:00 | -6.80344 | 109.24798 | 34810 ft | 493 kts | 98° |
| 2026-05-06 07:01 | -6.81383 | 109.31619 | 34808 ft | 493 kts | 98° |
| 2026-05-06 07:01 | -6.82416 | 109.38401 | 34811 ft | 494 kts | 98° |
| 2026-05-06 07:02 | -6.83456 | 109.45234 | 34813 ft | 494 kts | 98° |
| 2026-05-06 07:02 | -6.84496 | 109.52075 | 34816 ft | 495 kts | 98° |
| 2026-05-06 07:03 | -6.85534 | 109.58917 | 34816 ft | 495 kts | 98° |
| 2026-05-06 07:03 | -6.86572 | 109.65760 | 34815 ft | 495 kts | 98° |
| 2026-05-06 07:04 | -6.87610 | 109.72607 | 34818 ft | 495 kts | 98° |
| 2026-05-06 07:04 | -6.88647 | 109.79459 | 34815 ft | 495 kts | 98° |
| 2026-05-06 07:05 | -6.89683 | 109.86308 | 34816 ft | 495 kts | 98° |
| 2026-05-06 07:05 | -6.90719 | 109.93161 | 34817 ft | 495 kts | 98° |
| 2026-05-06 07:06 | -6.91753 | 110.00012 | 34818 ft | 495 kts | 98° |
| 2026-05-06 07:06 | -6.92785 | 110.06862 | 34815 ft | 495 kts | 98° |
| 2026-05-06 07:07 | -6.93818 | 110.13716 | 34809 ft | 495 kts | 98° |
| 2026-05-06 07:07 | -6.94843 | 110.20528 | 34803 ft | 495 kts | 98° |
| 2026-05-06 07:08 | -6.95874 | 110.27381 | 34801 ft | 495 kts | 98° |
| 2026-05-06 07:08 | -6.96904 | 110.34240 | 34800 ft | 496 kts | 98° |
| 2026-05-06 07:09 | -6.97536 | 110.41133 | 34802 ft | 495 kts | 90° |
| 2026-05-06 07:09 | -6.97647 | 110.48063 | 34800 ft | 495 kts | 91° |
| 2026-05-06 07:10 | -6.97776 | 110.54997 | 34801 ft | 495 kts | 91° |
| 2026-05-06 07:10 | -6.97902 | 110.61926 | 34798 ft | 495 kts | 91° |
| 2026-05-06 07:11 | -6.98026 | 110.68863 | 34798 ft | 496 kts | 91° |
| 2026-05-06 07:11 | -6.98148 | 110.75800 | 34794 ft | 496 kts | 91° |
| 2026-05-06 07:12 | -6.98269 | 110.82736 | 34795 ft | 496 kts | 91° |
| 2026-05-06 07:12 | -6.98390 | 110.89679 | 34797 ft | 496 kts | 91° |
| 2026-05-06 07:13 | -6.98509 | 110.96580 | 34758 ft | 497 kts | 91° |
| 2026-05-06 07:13 | -6.98628 | 111.03542 | 34714 ft | 498 kts | 91° |
| 2026-05-06 07:13 | -6.98686 | 111.07008 | 34893 ft | 494 kts | 91° |
| 2026-05-06 07:14 | -6.98744 | 111.10470 | 34885 ft | 494 kts | 91° |
| 2026-05-06 07:14 | -6.98857 | 111.17305 | 34602 ft | 479 kts | 91° |
| 2026-05-06 07:14 | -6.98914 | 111.20654 | 33825 ft | 480 kts | 91° |
| 2026-05-06 07:15 | -6.98970 | 111.24030 | 32854 ft | 484 kts | 91° |
| 2026-05-06 07:15 | -6.99027 | 111.27418 | 31932 ft | 486 kts | 91° |
| 2026-05-06 07:15 | -6.99083 | 111.30829 | 31001 ft | 489 kts | 91° |
| 2026-05-06 07:15 | -6.99139 | 111.34259 | 30100 ft | 491 kts | 91° |
| 2026-05-06 07:16 | -6.99196 | 111.37706 | 29073 ft | 493 kts | 91° |
| 2026-05-06 07:16 | -6.99432 | 111.41136 | 28322 ft | 489 kts | 97° |
| 2026-05-06 07:16 | -7.00029 | 111.44482 | 27676 ft | 483 kts | 103° |
| 2026-05-06 07:16 | -7.00920 | 111.47728 | 27023 ft | 478 kts | 106° |
| 2026-05-06 07:17 | -7.01834 | 111.50926 | 26376 ft | 474 kts | 106° |
| 2026-05-06 07:17 | -7.02733 | 111.54099 | 25741 ft | 469 kts | 106° |
| 2026-05-06 07:17 | -7.03622 | 111.57243 | 25133 ft | 465 kts | 106° |
| 2026-05-06 07:17 | -7.04502 | 111.60356 | 24532 ft | 460 kts | 106° |
| 2026-05-06 07:18 | -7.05375 | 111.63441 | 23944 ft | 456 kts | 106° |
| 2026-05-06 07:18 | -7.06239 | 111.66497 | 23373 ft | 452 kts | 106° |
| 2026-05-06 07:18 | -7.07096 | 111.69526 | 22707 ft | 447 kts | 106° |
| 2026-05-06 07:18 | -7.07944 | 111.72521 | 22073 ft | 442 kts | 106° |
| 2026-05-06 07:19 | -7.08781 | 111.75482 | 21447 ft | 438 kts | 106° |
| 2026-05-06 07:19 | -7.09607 | 111.78405 | 21079 ft | 428 kts | 106° |
| 2026-05-06 07:19 | -7.10395 | 111.81193 | 20931 ft | 412 kts | 106° |
| 2026-05-06 07:19 | -7.11166 | 111.83919 | 20786 ft | 398 kts | 106° |
| 2026-05-06 07:20 | -7.11911 | 111.86554 | 20656 ft | 384 kts | 106° |
| 2026-05-06 07:20 | -7.12627 | 111.89089 | 20538 ft | 370 kts | 106° |
| 2026-05-06 07:20 | -7.13319 | 111.91538 | 20425 ft | 357 kts | 106° |
| 2026-05-06 07:20 | -7.13987 | 111.93905 | 20318 ft | 345 kts | 106° |
| 2026-05-06 07:21 | -7.14631 | 111.96186 | 20212 ft | 333 kts | 106° |
| 2026-05-06 07:21 | -7.15258 | 111.98405 | 19933 ft | 328 kts | 106° |
| 2026-05-06 07:21 | -7.15961 | 112.00576 | 19559 ft | 326 kts | 113° |
| 2026-05-06 07:21 | -7.16864 | 112.02662 | 19187 ft | 324 kts | 114° |
| 2026-05-06 07:22 | -7.17757 | 112.04735 | 18848 ft | 322 kts | 114° |
| 2026-05-06 07:22 | -7.18640 | 112.06798 | 18503 ft | 320 kts | 114° |
| 2026-05-06 07:22 | -7.19516 | 112.08848 | 18170 ft | 318 kts | 114° |
| 2026-05-06 07:22 | -7.20380 | 112.10868 | 18004 ft | 309 kts | 114° |
| 2026-05-06 07:23 | -7.21222 | 112.12840 | 17903 ft | 307 kts | 114° |
| 2026-05-06 07:23 | -7.22069 | 112.14820 | 17817 ft | 308 kts | 114° |
| 2026-05-06 07:23 | -7.22914 | 112.16798 | 17529 ft | 308 kts | 114° |
| 2026-05-06 07:23 | -7.23766 | 112.18790 | 17109 ft | 310 kts | 114° |
| 2026-05-06 07:24 | -7.24616 | 112.20778 | 16727 ft | 308 kts | 114° |
| 2026-05-06 07:24 | -7.25461 | 112.22753 | 16391 ft | 306 kts | 114° |
| 2026-05-06 07:24 | -7.26300 | 112.24715 | 16029 ft | 304 kts | 114° |
| 2026-05-06 07:24 | -7.27132 | 112.26662 | 15675 ft | 302 kts | 114° |
| 2026-05-06 07:25 | -7.27958 | 112.28599 | 15339 ft | 299 kts | 114° |
| 2026-05-06 07:25 | -7.28774 | 112.30513 | 14973 ft | 298 kts | 114° |
| 2026-05-06 07:25 | -7.29566 | 112.32460 | 14438 ft | 305 kts | 109° |
| 2026-05-06 07:25 | -7.30076 | 112.34557 | 13877 ft | 312 kts | 102° |
| 2026-05-06 07:26 | -7.30494 | 112.36718 | 13276 ft | 317 kts | 102° |
| 2026-05-06 07:26 | -7.30935 | 112.38919 | 12667 ft | 323 kts | 102° |
| 2026-05-06 07:26 | -7.31386 | 112.41154 | 11977 ft | 328 kts | 102° |
| 2026-05-06 07:26 | -7.31847 | 112.43429 | 10960 ft | 336 kts | 102° |
| 2026-05-06 07:27 | -7.32321 | 112.45776 | 9807 ft | 347 kts | 102° |
| 2026-05-06 07:27 | -7.32810 | 112.48196 | 8418 ft | 359 kts | 102° |
| 2026-05-06 07:27 | -7.33309 | 112.50674 | 7038 ft | 372 kts | 102° |
| 2026-05-06 07:27 | -7.33855 | 112.53346 | 6350 ft | 403 kts | 102° |
| 2026-05-06 07:28 | -7.34404 | 112.56073 | 6404 ft | 388 kts | 101° |
| 2026-05-06 07:28 | -7.34930 | 112.58696 | 5874 ft | 377 kts | 101° |
| 2026-05-06 07:28 | -7.35710 | 112.63776 | 4566 ft | 360 kts | 97° |
| 2026-05-06 07:29 | -7.36041 | 112.66265 | 3702 ft | 355 kts | 98° |
| 2026-05-06 07:29 | -7.36375 | 112.68618 | 3635 ft | 319 kts | 98° |
| 2026-05-06 07:29 | -7.36693 | 112.70645 | 3517 ft | 270 kts | 98° |
| 2026-05-06 07:29 | -7.36983 | 112.72409 | 3426 ft | 241 kts | 99° |
| 2026-05-06 07:30 | -7.37263 | 112.73898 | 4069 ft | 203 kts | 101° |
| 2026-05-06 07:30 | -7.37545 | 112.75252 | 4567 ft | 196 kts | 102° |
| 2026-05-06 07:30 | -7.37860 | 112.76624 | 5337 ft | 202 kts | 103° |
| 2026-05-06 07:30 | -7.38156 | 112.78099 | 5651 ft | 229 kts | 97° |
| 2026-05-06 07:31 | -7.38098 | 112.79695 | 5959 ft | 223 kts | 77° |
| 2026-05-06 07:31 | -7.37755 | 112.80647 | 6682 ft | 212 kts | 64° |
| 2026-05-06 07:31 | -7.36897 | 112.82410 | 7937 ft | 215 kts | 67° |